Time;durP1;ratioP1;P1;durP2;ratioP2;P2;SDS_P1;SDS_P2;PMS_P1;PMS_P2;Temp;Humidity;BMP_temperature;BMP_pressure;BME280_temperature;BME280_humidity;BME280_pressure;Samples;Min_cycle;Max_cycle;Signal;HPM_P1;HPM_P2
2022/01/14 00:00:00;;;;;;;12.13;7.80;;;3.10;99.90;;;;;;5073842;28;20184;-77
2022/01/14 00:02:28;;;;;;;11.77;7.37;;;3.10;99.90;;;;;;5075888;28;20188;-75
2022/01/14 00:04:54;;;;;;;11.17;6.83;;;3.10;99.90;;;;;;5072105;28;20191;-80
2022/01/14 00:07:20;;;;;;;11.53;7.47;;;3.10;99.90;;;;;;5065852;28;20176;-78
2022/01/14 00:09:48;;;;;;;12.03;7.27;;;3.10;99.90;;;;;;5084358;28;20180;-80
2022/01/14 00:12:25;;;;;;;11.23;7.03;;;3.10;99.90;;;;;;5072681;28;20172;-81
2022/01/14 00:15:13;;;;;;;11.43;7.20;;;3.00;99.90;;;;;;5073825;28;20266;-68
2022/01/14 00:17:40;;;;;;;9.00;6.00;;;3.00;99.90;;;;;;5092337;28;20266;-82
2022/01/14 00:20:06;;;;;;;9.50;6.07;;;3.00;99.90;;;;;;5070007;28;20188;-81
2022/01/14 00:22:32;;;;;;;9.57;6.37;;;3.00;99.90;;;;;;5072832;28;20219;-78
2022/01/14 00:33:05;;;;;;;9.03;5.77;;;3.00;99.90;;;;;;5073349;28;20246;-80
2022/01/14 00:35:35;;;;;;;10.07;6.63;;;2.90;99.90;;;;;;5071608;28;20200;-81
2022/01/14 00:38:03;;;;;;;10.47;6.33;;;2.90;99.90;;;;;;5077942;28;20177;-81
2022/01/14 00:40:29;;;;;;;9.53;6.27;;;2.90;99.90;;;;;;5071827;28;20271;-81
2022/01/14 00:42:55;;;;;;;9.97;6.37;;;2.90;99.90;;;;;;5071650;28;20275;-79
2022/01/14 00:45:25;;;;;;;11.40;6.40;;;2.90;99.90;;;;;;5072724;28;20191;-82
2022/01/14 00:47:51;;;;;;;9.67;6.30;;;2.90;99.90;;;;;;5074205;28;20200;-75
2022/01/14 00:50:20;;;;;;;8.20;5.53;;;2.90;99.90;;;;;;5072394;28;20212;-81
2022/01/14 00:52:49;;;;;;;11.20;6.70;;;2.90;99.90;;;;;;5073449;28;20218;-77
2022/01/14 00:55:18;;;;;;;9.43;6.03;;;2.90;99.90;;;;;;5072089;28;20199;-82
2022/01/14 01:00:26;;;;;;;8.37;6.10;;;2.90;99.90;;;;;;5070069;28;20184;-76
2022/01/14 01:02:52;;;;;;;10.20;6.90;;;2.90;99.90;;;;;;5071581;28;20200;-80
2022/01/14 01:05:20;;;;;;;10.20;6.87;;;2.80;99.90;;;;;;5072782;28;20266;-77
2022/01/14 01:08:00;;;;;;;10.67;6.97;;;2.80;99.90;;;;;;5072289;28;20165;-80
2022/01/14 01:10:26;;;;;;;9.80;6.57;;;2.80;99.90;;;;;;5070602;28;20208;-81
2022/01/14 01:12:59;;;;;;;9.60;6.73;;;2.80;99.90;;;;;;5073693;28;20179;-82
2022/01/14 01:15:27;;;;;;;13.77;7.80;;;2.80;99.90;;;;;;5072235;28;20177;-73
2022/01/14 01:17:55;;;;;;;15.70;8.10;;;2.80;99.90;;;;;;5084446;28;20195;-79
2022/01/14 01:20:21;;;;;;;12.30;7.73;;;2.80;99.90;;;;;;5075368;28;20173;-80
2022/01/14 01:22:54;;;;;;;10.90;7.37;;;2.80;99.90;;;;;;5079419;28;20200;-79
2022/01/14 01:25:23;;;;;;;11.87;7.87;;;2.80;99.90;;;;;;5075976;28;20189;-79
2022/01/14 01:27:54;;;;;;;13.47;7.90;;;2.80;99.90;;;;;;5074890;28;20260;-82
2022/01/14 01:32:57;;;;;;;14.07;8.23;;;2.80;99.90;;;;;;5069786;28;20175;-81
2022/01/14 01:35:25;;;;;;;11.77;7.53;;;2.80;99.90;;;;;;5073372;28;20176;-81
2022/01/14 01:37:51;;;;;;;12.60;7.30;;;2.80;99.90;;;;;;5066704;28;20188;-79
2022/01/14 01:40:22;;;;;;;13.97;7.73;;;2.80;99.90;;;;;;5067483;28;20195;-70
2022/01/14 01:42:48;;;;;;;12.83;7.80;;;2.80;99.90;;;;;;5070994;28;20637;-79
2022/01/14 01:45:22;;;;;;;11.30;7.43;;;2.80;99.90;;;;;;5071952;28;20161;-78
2022/01/14 01:47:50;;;;;;;12.33;7.27;;;2.80;99.90;;;;;;5078458;28;20173;-81
2022/01/14 01:50:23;;;;;;;12.20;8.00;;;2.80;99.90;;;;;;5068129;28;20222;-81
2022/01/14 01:52:49;;;;;;;10.77;7.20;;;2.90;99.90;;;;;;5071953;28;20192;-79
2022/01/14 01:55:15;;;;;;;10.27;6.40;;;2.90;99.90;;;;;;5073557;28;20172;-77
2022/01/14 01:57:44;;;;;;;10.00;6.50;;;2.90;99.90;;;;;;5072454;28;20372;-82
2022/01/14 02:00:15;;;;;;;11.37;6.40;;;2.90;99.90;;;;;;5072530;28;20204;-79
2022/01/14 02:02:42;;;;;;;9.10;6.07;;;2.90;99.90;;;;;;5076135;28;20246;-81
2022/01/14 02:05:08;;;;;;;9.07;6.10;;;2.90;99.90;;;;;;5075481;28;20188;-81
2022/01/14 02:07:41;;;;;;;10.63;6.13;;;2.90;99.90;;;;;;5073287;28;20222;-81
2022/01/14 02:10:12;;;;;;;9.07;6.17;;;2.90;99.90;;;;;;5075362;28;20176;-80
2022/01/14 02:12:49;;;;;;;9.47;5.53;;;2.90;99.90;;;;;;5075473;28;20463;-77
2022/01/14 02:18:26;;;;;;;8.87;5.37;;;2.90;99.90;;;;;;5075678;28;20191;-77
2022/01/14 02:23:34;;;;;;;10.10;6.37;;;2.80;99.90;;;;;;5075691;28;20258;-80
2022/01/14 02:26:02;;;;;;;8.93;6.10;;;2.80;99.90;;;;;;5072846;28;20176;-81
2022/01/14 02:28:31;;;;;;;9.27;6.00;;;2.70;99.90;;;;;;5075199;28;20177;-77
2022/01/14 02:30:59;;;;;;;10.40;6.67;;;2.80;99.90;;;;;;5075273;28;20165;-75
2022/01/14 02:33:24;;;;;;;12.70;7.80;;;2.70;99.90;;;;;;5071796;28;20272;-80
2022/01/14 02:35:54;;;;;;;12.53;7.37;;;2.70;99.90;;;;;;5073416;28;20213;-79
2022/01/14 02:38:20;;;;;;;14.00;8.70;;;2.70;99.90;;;;;;5088525;28;20188;-80
2022/01/14 02:40:47;;;;;;;13.57;7.47;;;2.70;99.90;;;;;;5074552;28;20287;-81
2022/01/14 02:43:15;;;;;;;13.30;8.13;;;2.70;99.90;;;;;;5072590;28;20212;-82
2022/01/14 02:45:51;;;;;;;11.23;7.17;;;2.70;99.90;;;;;;5069846;28;20180;-80
2022/01/14 02:48:18;;;;;;;14.87;9.13;;;2.70;99.90;;;;;;5073258;28;20440;-81
2022/01/14 02:50:58;;;;;;;12.00;7.70;;;2.70;99.90;;;;;;5082300;28;20192;-79
2022/01/14 02:56:13;;;;;;;11.60;7.57;;;2.70;99.90;;;;;;5072177;28;20268;-81
2022/01/14 02:58:41;;;;;;;14.23;8.40;;;2.70;99.90;;;;;;5063027;28;20184;-76
2022/01/14 03:01:22;;;;;;;11.30;6.97;;;2.60;99.90;;;;;;5071394;28;20185;-81
2022/01/14 03:03:53;;;;;;;13.73;8.33;;;2.60;99.90;;;;;;5073325;28;20208;-81
2022/01/14 03:06:19;;;;;;;11.77;7.33;;;2.60;99.90;;;;;;5074913;28;20208;-80
2022/01/14 03:08:45;;;;;;;13.13;7.63;;;2.60;99.90;;;;;;5073986;28;20181;-79
2022/01/14 03:11:19;;;;;;;11.27;7.40;;;2.60;99.90;;;;;;5071755;28;20177;-81
2022/01/14 03:13:46;;;;;;;12.77;8.63;;;2.60;99.90;;;;;;5070563;28;20193;-76
2022/01/14 03:16:12;;;;;;;13.87;8.50;;;2.60;99.90;;;;;;5072527;28;20233;-81
2022/01/14 03:18:46;;;;;;;12.17;7.33;;;2.50;99.90;;;;;;5073388;28;20196;-78
2022/01/14 03:21:13;;;;;;;11.70;7.40;;;2.50;99.90;;;;;;5072746;28;20211;-76
2022/01/14 03:23:51;;;;;;;13.17;7.60;;;2.50;99.90;;;;;;5073966;28;20223;-81
2022/01/14 03:26:21;;;;;;;9.60;6.83;;;2.50;99.90;;;;;;5067913;28;20504;-81
2022/01/14 03:28:49;;;;;;;12.57;7.37;;;2.50;99.90;;;;;;5073262;28;20185;-80
2022/01/14 03:31:15;;;;;;;12.33;7.27;;;2.50;99.90;;;;;;5073863;28;20215;-80
2022/01/14 03:33:41;;;;;;;11.30;7.07;;;2.40;99.90;;;;;;5070000;28;20200;-71
2022/01/14 03:36:07;;;;;;;11.23;7.33;;;2.40;99.90;;;;;;5073906;28;20181;-81
2022/01/14 03:38:35;;;;;;;12.10;7.00;;;2.40;99.90;;;;;;5088065;28;20193;-81
2022/01/14 03:41:01;;;;;;;10.67;7.20;;;2.40;99.90;;;;;;5071852;28;20188;-81
2022/01/14 03:43:30;;;;;;;13.97;7.97;;;2.40;99.90;;;;;;5073104;28;20214;-73
2022/01/14 03:45:57;;;;;;;12.90;7.80;;;2.40;99.90;;;;;;5065209;28;20177;-80
2022/01/14 03:48:25;;;;;;;11.27;7.47;;;2.30;99.90;;;;;;5073648;28;20200;-74
2022/01/14 03:50:51;;;;;;;13.00;7.73;;;2.30;99.90;;;;;;5071509;28;20189;-81
2022/01/14 03:53:16;;;;;;;11.60;7.60;;;2.30;99.90;;;;;;5070613;28;20185;-77
2022/01/14 03:55:47;;;;;;;12.70;8.40;;;2.30;99.90;;;;;;5073352;28;20271;-80
2022/01/14 03:58:18;;;;;;;10.90;7.37;;;2.20;99.90;;;;;;5072174;28;20219;-81
2022/01/14 04:00:43;;;;;;;11.30;7.37;;;2.20;99.90;;;;;;5071555;28;20200;-69
2022/01/14 04:03:09;;;;;;;12.83;7.53;;;2.20;99.90;;;;;;5071010;28;20295;-81
2022/01/14 04:05:39;;;;;;;13.43;8.20;;;2.20;99.90;;;;;;5068504;28;20239;-79
2022/01/14 04:08:05;;;;;;;12.83;7.30;;;2.20;99.90;;;;;;5073432;28;20173;-71
2022/01/14 04:10:31;;;;;;;12.13;7.90;;;2.20;99.90;;;;;;5071998;28;20178;-81
2022/01/14 04:15:42;;;;;;;12.07;7.50;;;2.10;99.90;;;;;;5074575;28;20180;-82
2022/01/14 04:18:21;;;;;;;10.23;7.03;;;2.10;99.90;;;;;;5070835;28;20235;-81
2022/01/14 04:20:49;;;;;;;10.87;6.47;;;2.10;99.90;;;;;;5063560;28;20200;-82
2022/01/14 04:23:18;;;;;;;8.90;6.40;;;2.20;99.90;;;;;;5070574;28;20208;-79
2022/01/14 04:25:47;;;;;;;10.53;6.57;;;2.10;99.90;;;;;;5062039;28;20184;-79
2022/01/14 04:28:13;;;;;;;10.73;6.40;;;2.20;99.90;;;;;;5076116;28;20229;-76
2022/01/14 04:30:41;;;;;;;12.07;7.50;;;2.20;99.90;;;;;;5070781;28;20191;-76
2022/01/14 04:33:07;;;;;;;14.17;8.87;;;2.20;99.90;;;;;;5068317;28;20180;-80
2022/01/14 04:35:38;;;;;;;13.57;8.10;;;2.20;99.90;;;;;;5071870;28;20184;-82
2022/01/14 04:38:05;;;;;;;11.87;7.20;;;2.20;99.90;;;;;;5069354;28;20181;-72
2022/01/14 04:40:31;;;;;;;9.90;6.60;;;2.20;99.90;;;;;;5073089;28;20176;-82
2022/01/14 04:42:58;;;;;;;17.07;11.67;;;2.20;99.90;;;;;;5072780;28;20240;-81
2022/01/14 04:45:40;;;;;;;13.40;9.30;;;2.20;99.90;;;;;;5072510;28;20190;-81
2022/01/14 04:48:10;;;;;;;9.80;6.93;;;2.10;99.90;;;;;;5061713;28;20208;-77
2022/01/14 04:50:38;;;;;;;9.13;6.30;;;2.10;99.90;;;;;;5068842;28;20257;-79
2022/01/14 04:53:07;;;;;;;11.57;6.40;;;2.10;99.90;;;;;;5072188;28;20177;-79
2022/01/14 04:55:33;;;;;;;9.67;6.10;;;2.10;99.90;;;;;;5072963;28;20276;-80
2022/01/14 04:57:58;;;;;;;9.17;6.13;;;2.10;99.90;;;;;;5063779;28;20227;-79
2022/01/14 05:00:30;;;;;;;12.67;8.20;;;2.10;99.90;;;;;;5071323;28;20183;-78
2022/01/14 05:02:56;;;;;;;10.17;7.20;;;2.10;99.90;;;;;;5069046;28;20200;-82
2022/01/14 05:05:28;;;;;;;8.97;5.93;;;2.10;99.90;;;;;;5072999;28;20207;-80
2022/01/14 05:07:54;;;;;;;9.00;6.13;;;2.10;99.90;;;;;;5071613;28;20185;-79
2022/01/14 05:13:08;;;;;;;8.07;5.33;;;2.10;99.90;;;;;;5072104;28;20516;-72
2022/01/14 05:15:33;;;;;;;8.70;5.83;;;2.10;99.90;;;;;;5073564;28;20188;-81
2022/01/14 05:17:59;;;;;;;9.73;6.20;;;2.00;99.90;;;;;;5071043;28;20181;-77
2022/01/14 05:20:25;;;;;;;7.43;5.40;;;2.00;99.90;;;;;;5081578;28;20467;-76
2022/01/14 05:22:50;;;;;;;8.13;5.73;;;2.00;99.90;;;;;;5067846;28;20212;-79
2022/01/14 05:25:16;;;;;;;8.70;5.70;;;2.00;99.90;;;;;;5069332;28;20255;-81
2022/01/14 05:27:46;;;;;;;7.93;5.17;;;2.00;99.90;;;;;;5067826;28;20262;-77
2022/01/14 05:30:13;;;;;;;9.07;5.60;;;1.90;99.90;;;;;;5076779;28;20192;-80
2022/01/14 05:32:46;;;;;;;10.40;6.60;;;1.90;99.90;;;;;;5077454;28;20363;-69
2022/01/14 05:35:15;;;;;;;9.67;5.83;;;2.00;99.90;;;;;;5063139;28;20185;-70
2022/01/14 05:37:43;;;;;;;8.60;6.30;;;1.90;99.90;;;;;;5076473;28;20180;-73
2022/01/14 05:40:09;;;;;;;8.50;6.13;;;1.90;99.90;;;;;;5077137;28;20366;-72
2022/01/14 05:42:36;;;;;;;10.50;6.53;;;1.90;99.90;;;;;;5075689;28;20211;-73
2022/01/14 05:45:09;;;;;;;11.23;7.23;;;1.90;99.90;;;;;;5074397;28;20201;-73
2022/01/14 05:47:37;;;;;;;10.83;7.47;;;1.90;99.90;;;;;;5075959;28;20249;-72
2022/01/14 05:50:11;;;;;;;10.83;7.07;;;1.90;99.90;;;;;;5074934;28;20184;-73
2022/01/14 05:52:37;;;;;;;10.87;6.97;;;1.90;99.90;;;;;;5076391;28;20180;-67
2022/01/14 05:55:06;;;;;;;12.67;7.60;;;1.90;99.90;;;;;;5075685;28;20233;-72
2022/01/14 05:57:38;;;;;;;13.10;8.60;;;1.90;99.90;;;;;;5073868;28;20189;-68
2022/01/14 06:00:16;;;;;;;11.53;7.03;;;1.90;99.90;;;;;;5080378;28;20180;-71
2022/01/14 06:02:45;;;;;;;12.47;6.97;;;1.90;99.90;;;;;;5075497;28;20193;-72
2022/01/14 06:05:12;;;;;;;9.60;6.03;;;1.90;99.90;;;;;;5074793;28;20306;-72
2022/01/14 06:07:40;;;;;;;9.50;6.10;;;1.90;99.90;;;;;;5070338;28;20203;-73
2022/01/14 06:10:06;;;;;;;10.47;7.10;;;1.90;99.90;;;;;;5062648;28;20213;-72
2022/01/14 06:12:32;;;;;;;10.30;6.37;;;1.90;99.90;;;;;;5072606;28;20180;-67
2022/01/14 06:15:00;;;;;;;8.23;5.50;;;1.90;99.90;;;;;;5075276;28;20188;-76
2022/01/14 06:17:28;;;;;;;10.80;6.93;;;1.90;99.90;;;;;;5066934;28;20260;-73
2022/01/14 06:19:56;;;;;;;10.23;6.80;;;1.90;99.90;;;;;;5071754;28;20185;-74
2022/01/14 06:22:22;;;;;;;8.47;6.00;;;1.90;99.90;;;;;;5076149;28;20184;-70
2022/01/14 06:24:49;;;;;;;8.83;5.70;;;1.90;99.90;;;;;;5075865;28;20199;-71
2022/01/14 06:27:14;;;;;;;10.73;6.50;;;1.80;99.90;;;;;;5075233;28;20212;-69
2022/01/14 06:29:47;;;;;;;11.23;6.93;;;1.80;99.90;;;;;;5073995;28;20216;-73
2022/01/14 06:32:13;;;;;;;10.90;7.30;;;1.80;99.90;;;;;;5074911;28;20263;-74
2022/01/14 06:34:43;;;;;;;9.57;6.83;;;1.80;99.90;;;;;;5075506;28;20230;-73
2022/01/14 06:37:09;;;;;;;11.57;7.53;;;1.80;99.90;;;;;;5070010;28;20168;-71
2022/01/14 06:39:34;;;;;;;11.43;7.67;;;1.80;99.90;;;;;;5074257;28;20420;-71
2022/01/14 06:42:00;;;;;;;10.10;6.83;;;1.80;99.90;;;;;;5074413;28;20180;-72
2022/01/14 06:44:26;;;;;;;11.60;6.90;;;1.80;99.90;;;;;;5070555;28;20275;-74
2022/01/14 06:46:54;;;;;;;10.30;6.60;;;1.80;99.90;;;;;;5075092;28;20192;-74
2022/01/14 06:49:22;;;;;;;10.27;6.67;;;1.90;99.90;;;;;;5074257;28;20176;-74
2022/01/14 06:51:49;;;;;;;11.83;7.33;;;1.80;99.90;;;;;;5070035;28;20188;-74
2022/01/14 06:54:20;;;;;;;9.20;6.10;;;1.90;99.90;;;;;;5069018;28;20205;-71
2022/01/14 06:56:45;;;;;;;8.00;5.60;;;1.90;99.90;;;;;;5074048;28;20462;-72
2022/01/14 06:59:13;;;;;;;8.37;5.57;;;1.90;99.90;;;;;;5068577;28;20205;-73
2022/01/14 07:01:39;;;;;;;8.07;5.40;;;1.90;99.90;;;;;;5074949;28;20180;-73
2022/01/14 07:04:05;;;;;;;9.67;5.80;;;1.90;99.90;;;;;;5074128;28;20200;-73
2022/01/14 07:06:32;;;;;;;8.60;5.40;;;1.90;99.90;;;;;;5072752;28;20192;-72
2022/01/14 07:09:01;;;;;;;8.57;5.77;;;1.90;99.90;;;;;;5073987;28;20226;-76
2022/01/14 07:11:35;;;;;;;8.37;5.33;;;1.90;99.90;;;;;;5064998;28;20185;-69
2022/01/14 07:14:06;;;;;;;6.43;4.83;;;1.90;99.90;;;;;;5072484;28;20202;-71
2022/01/14 07:16:33;;;;;;;7.30;4.93;;;1.90;99.90;;;;;;5080417;28;20176;-72
2022/01/14 07:19:04;;;;;;;7.63;5.27;;;1.90;99.90;;;;;;5074295;28;20177;-72
2022/01/14 07:21:35;;;;;;;7.17;5.00;;;1.90;99.90;;;;;;5072712;28;20330;-73
2022/01/14 07:24:02;;;;;;;6.60;4.83;;;1.90;99.90;;;;;;5074025;28;20204;-71
2022/01/14 07:26:30;;;;;;;6.83;5.00;;;1.90;99.90;;;;;;5068967;28;20162;-72
2022/01/14 07:28:55;;;;;;;9.97;6.27;;;1.90;99.90;;;;;;5082377;28;20178;-71
2022/01/14 07:31:21;;;;;;;7.60;5.70;;;1.90;99.90;;;;;;5072778;28;20184;-71
2022/01/14 07:33:49;;;;;;;7.80;5.67;;;1.90;99.90;;;;;;5073707;28;20189;-74
2022/01/14 07:36:16;;;;;;;9.80;6.47;;;1.90;99.90;;;;;;5071961;28;20169;-73
2022/01/14 07:38:44;;;;;;;8.03;6.07;;;1.90;99.90;;;;;;5073073;28;20173;-74
2022/01/14 07:41:10;;;;;;;8.63;5.93;;;1.90;99.90;;;;;;5073528;28;20173;-73
2022/01/14 07:43:38;;;;;;;8.40;5.83;;;1.90;99.90;;;;;;5065715;28;20219;-73
2022/01/14 07:46:05;;;;;;;10.67;5.87;;;1.80;99.90;;;;;;5069837;28;20231;-74
2022/01/14 07:48:31;;;;;;;8.97;6.30;;;1.80;99.90;;;;;;5071850;28;20218;-71
2022/01/14 07:51:01;;;;;;;9.37;6.30;;;1.80;99.90;;;;;;5077231;28;20220;-73
2022/01/14 07:53:27;;;;;;;9.67;6.17;;;1.90;99.90;;;;;;5072103;28;20175;-71
2022/01/14 07:55:53;;;;;;;9.33;6.67;;;1.80;99.90;;;;;;5073205;28;20263;-74
2022/01/14 07:58:21;;;;;;;11.10;6.30;;;1.80;99.90;;;;;;5070493;28;20184;-73
2022/01/14 08:00:49;;;;;;;9.93;6.50;;;1.80;99.90;;;;;;5072705;28;20188;-73
2022/01/14 08:03:22;;;;;;;9.30;5.90;;;1.80;99.90;;;;;;5072957;28;20197;-73
2022/01/14 08:05:49;;;;;;;9.33;6.47;;;1.80;99.90;;;;;;5069985;28;20165;-73
2022/01/14 08:08:17;;;;;;;9.57;6.87;;;1.80;99.90;;;;;;5067533;28;20249;-72
2022/01/14 08:10:43;;;;;;;10.60;6.70;;;1.80;99.90;;;;;;5075423;28;20169;-73
2022/01/14 08:13:10;;;;;;;10.33;6.47;;;1.80;99.90;;;;;;5073410;28;20179;-74
2022/01/14 08:15:36;;;;;;;11.00;6.70;;;1.80;99.90;;;;;;5065636;28;20195;-71
2022/01/14 08:18:02;;;;;;;9.43;6.53;;;1.80;99.90;;;;;;5074616;28;20172;-69
2022/01/14 08:20:31;;;;;;;9.83;6.17;;;1.80;99.90;;;;;;5070775;28;20245;-73
2022/01/14 08:23:01;;;;;;;12.80;6.80;;;1.80;99.90;;;;;;5073730;28;20203;-69
2022/01/14 08:25:28;;;;;;;11.07;7.20;;;1.90;99.90;;;;;;5068421;28;20180;-73
2022/01/14 08:27:56;;;;;;;11.40;7.27;;;1.90;99.90;;;;;;5071101;28;20197;-73
2022/01/14 08:30:27;;;;;;;9.20;5.93;;;1.90;99.90;;;;;;5063660;28;20204;-71
2022/01/14 08:32:52;;;;;;;9.47;6.07;;;1.90;99.90;;;;;;5073414;28;20231;-75
2022/01/14 08:35:18;;;;;;;8.77;6.43;;;2.00;99.90;;;;;;5068655;28;20280;-72
2022/01/14 08:37:44;;;;;;;12.10;7.07;;;2.00;99.90;;;;;;5072035;28;20177;-72
2022/01/14 08:40:10;;;;;;;11.67;7.47;;;2.00;99.90;;;;;;5071871;28;20172;-75
2022/01/14 08:42:44;;;;;;;11.43;7.83;;;2.10;99.90;;;;;;5075322;28;20458;-73
2022/01/14 08:45:18;;;;;;;10.40;7.17;;;2.10;99.90;;;;;;5058446;28;20176;-75
2022/01/14 08:47:44;;;;;;;9.17;6.07;;;2.10;99.90;;;;;;5065107;28;20173;-72
2022/01/14 08:50:09;;;;;;;11.00;7.37;;;2.20;99.90;;;;;;5071873;28;20299;-75
2022/01/14 08:52:40;;;;;;;11.20;7.20;;;2.20;99.90;;;;;;5071148;28;20267;-74
2022/01/14 08:55:12;;;;;;;11.30;7.20;;;2.20;99.90;;;;;;5061593;28;20188;-73
2022/01/14 08:57:40;;;;;;;9.10;6.70;;;2.30;99.90;;;;;;5070256;28;20177;-72
2022/01/14 09:00:09;;;;;;;9.33;6.37;;;2.30;99.90;;;;;;5070028;28;20184;-73
2022/01/14 09:02:35;;;;;;;9.73;7.00;;;2.40;99.90;;;;;;5068903;28;20206;-70
2022/01/14 09:05:02;;;;;;;9.70;6.30;;;2.40;99.90;;;;;;5072235;28;20263;-70
2022/01/14 09:07:28;;;;;;;8.67;6.10;;;2.40;99.90;;;;;;5092006;28;20190;-76
2022/01/14 09:09:54;;;;;;;9.20;6.07;;;2.50;99.90;;;;;;5077242;28;20362;-72
2022/01/14 09:12:21;;;;;;;8.43;6.07;;;2.60;99.90;;;;;;5082222;28;20185;-79
2022/01/14 09:14:46;;;;;;;8.47;5.43;;;2.80;99.90;;;;;;5072503;28;20173;-75
2022/01/14 09:17:16;;;;;;;7.23;5.97;;;3.10;99.90;;;;;;5074159;28;20191;-81
2022/01/14 09:19:42;;;;;;;7.80;5.67;;;3.50;99.90;;;;;;5075956;28;20176;-78
2022/01/14 09:22:07;;;;;;;8.13;5.93;;;3.80;99.90;;;;;;5076085;28;20176;-79
2022/01/14 09:24:34;;;;;;;9.93;6.53;;;4.20;99.90;;;;;;5076766;28;20239;-77
2022/01/14 09:27:02;;;;;;;10.73;7.13;;;4.60;99.90;;;;;;5075652;28;20177;-74
2022/01/14 09:29:28;;;;;;;8.20;6.00;;;4.80;99.90;;;;;;5076309;28;20192;-78
2022/01/14 09:31:54;;;;;;;9.63;6.77;;;5.00;99.90;;;;;;5076598;28;20177;-80
2022/01/14 09:34:19;;;;;;;10.93;6.67;;;5.30;99.90;;;;;;5076344;28;20177;-77
2022/01/14 09:36:45;;;;;;;10.23;6.67;;;5.50;99.90;;;;;;5073441;28;20173;-80
2022/01/14 09:39:11;;;;;;;8.93;6.47;;;5.60;99.90;;;;;;5079992;28;20207;-77
2022/01/14 09:41:39;;;;;;;10.43;7.53;;;5.80;99.90;;;;;;5076822;28;20279;-77
2022/01/14 09:44:08;;;;;;;11.73;7.93;;;5.90;99.90;;;;;;5073613;28;20283;-77
2022/01/14 09:46:34;;;;;;;8.73;6.80;;;6.00;99.90;;;;;;5073815;28;20199;-76
2022/01/14 09:48:59;;;;;;;10.77;7.60;;;6.10;99.90;;;;;;5073005;28;20193;-73
2022/01/14 09:51:30;;;;;;;9.87;7.47;;;6.10;99.90;;;;;;5072781;28;20200;-75
2022/01/14 09:53:55;;;;;;;11.47;7.33;;;6.20;99.90;;;;;;5086539;28;20200;-75
2022/01/14 09:56:24;;;;;;;9.73;6.83;;;6.40;99.90;;;;;;5078982;28;20242;-79
2022/01/14 09:58:50;;;;;;;10.00;7.30;;;6.50;99.90;;;;;;5073991;28;20185;-76
2022/01/14 10:01:21;;;;;;;10.00;7.10;;;6.60;99.90;;;;;;5072077;28;20227;-74
2022/01/14 10:04:02;;;;;;;10.20;7.30;;;6.70;99.90;;;;;;5074861;28;20197;-75
2022/01/14 10:06:40;;;;;;;10.73;7.27;;;6.80;99.90;;;;;;5073218;28;20180;-78
2022/01/14 10:09:10;;;;;;;9.30;6.53;;;6.90;99.90;;;;;;5086424;28;20211;-77
2022/01/14 10:11:40;;;;;;;10.93;7.03;;;7.00;99.90;;;;;;5069298;28;20168;-77
2022/01/14 10:14:16;;;;;;;8.83;6.97;;;7.10;99.90;;;;;;5074058;28;20255;-76
2022/01/14 10:16:44;;;;;;;11.67;8.10;;;7.10;99.90;;;;;;5070359;28;20184;-71
2022/01/14 10:19:21;;;;;;;12.37;7.43;;;7.20;99.90;;;;;;5077202;28;20191;-77
2022/01/14 10:21:49;;;;;;;10.37;6.83;;;7.20;99.90;;;;;;5073403;28;20205;-75
2022/01/14 10:24:16;;;;;;;10.77;7.77;;;7.20;99.90;;;;;;5075659;28;20218;-73
2022/01/14 10:26:58;;;;;;;10.20;7.90;;;7.20;99.90;;;;;;5074386;28;20245;-73
2022/01/14 10:29:33;;;;;;;10.13;7.97;;;7.10;99.90;;;;;;5062887;28;20184;-74
2022/01/14 10:32:01;;;;;;;10.30;7.00;;;7.10;99.90;;;;;;5064317;28;20244;-74
2022/01/14 10:34:27;;;;;;;10.03;7.37;;;7.10;99.90;;;;;;5074220;28;20287;-74
2022/01/14 10:37:14;;;;;;;11.63;7.87;;;7.10;99.90;;;;;;5075558;28;20234;-78
2022/01/14 10:39:49;;;;;;;10.53;7.80;;;7.20;99.90;;;;;;5067871;28;20276;-75
2022/01/14 10:42:41;;;;;;;9.57;6.87;;;7.20;99.90;;;;;;5070446;28;20185;-75
2022/01/14 10:45:19;;;;;;;10.40;6.73;;;7.20;99.90;;;;;;5064783;28;20196;-76
2022/01/14 10:48:01;;;;;;;9.37;6.87;;;7.30;99.90;;;;;;5067346;28;20205;-71
2022/01/14 10:50:34;;;;;;;8.37;6.20;;;7.40;99.90;;;;;;5073012;28;20247;-73
2022/01/14 10:53:18;;;;;;;10.63;6.80;;;7.50;99.90;;;;;;5092042;28;20200;-75
2022/01/14 10:55:51;;;;;;;8.27;6.67;;;7.60;99.90;;;;;;5073396;28;20199;-73
2022/01/14 10:58:24;;;;;;;10.70;7.00;;;7.70;99.90;;;;;;5071282;28;20181;-76
2022/01/14 11:00:59;;;;;;;9.97;7.20;;;7.90;99.90;;;;;;5062944;28;20184;-75
2022/01/14 11:04:00;;;;;;;9.80;6.70;;;8.00;99.90;;;;;;5068560;28;20212;-73
2022/01/14 11:06:40;;;;;;;7.93;6.27;;;8.10;99.90;;;;;;5061169;28;20180;-76
2022/01/14 11:09:13;;;;;;;10.87;7.37;;;8.20;99.90;;;;;;5072345;28;20180;-75
2022/01/14 11:11:44;;;;;;;8.47;6.73;;;8.30;99.90;;;;;;5073992;28;20291;-75
2022/01/14 11:14:13;;;;;;;8.07;6.37;;;8.40;99.90;;;;;;5074294;28;20215;-75
2022/01/14 11:16:42;;;;;;;8.37;6.47;;;8.60;99.90;;;;;;5071115;28;20200;-75
2022/01/14 11:19:10;;;;;;;7.77;6.30;;;8.70;99.90;;;;;;5074063;28;20228;-76
2022/01/14 11:24:27;;;;;;;8.00;6.27;;;8.90;99.90;;;;;;5071259;28;20223;-76
2022/01/14 11:27:04;;;;;;;9.47;7.00;;;9.00;99.90;;;;;;5073446;28;20420;-80
2022/01/14 11:29:39;;;;;;;9.13;6.70;;;9.20;99.90;;;;;;5077017;28;20277;-78
2022/01/14 11:32:07;;;;;;;8.57;5.90;;;9.30;99.90;;;;;;5069126;28;20330;-76
2022/01/14 11:34:34;;;;;;;7.80;5.63;;;9.30;99.90;;;;;;5070821;28;20184;-76
2022/01/14 11:37:14;;;;;;;7.40;6.00;;;9.40;99.90;;;;;;5063846;28;20296;-75
2022/01/14 11:39:56;;;;;;;7.45;5.90;;;9.40;99.90;;;;;;5072733;28;20191;-78
2022/01/14 11:42:40;;;;;;;8.57;6.20;;;9.50;99.90;;;;;;5079059;28;20179;-78
2022/01/14 11:45:07;;;;;;;8.37;6.00;;;9.60;99.90;;;;;;5074976;28;20557;-76
2022/01/14 11:47:44;;;;;;;8.70;6.05;;;9.70;99.90;;;;;;5074011;28;20195;-77
2022/01/14 11:50:18;;;;;;;8.10;6.30;;;9.90;99.90;;;;;;5087289;28;20215;-74
2022/01/14 11:52:45;;;;;;;7.33;5.97;;;10.00;99.90;;;;;;5071745;28;20322;-73
2022/01/14 11:55:26;;;;;;;7.27;5.43;;;10.10;99.90;;;;;;5075942;28;20197;-67
2022/01/14 11:58:09;;;;;;;6.97;5.30;;;10.20;99.90;;;;;;5073794;28;20183;-68
2022/01/14 12:03:07;;;;;;;9.35;7.28;;;10.50;99.90;;;;;;5073486;28;20441;-77
2022/01/14 12:05:55;;;;;;;8.98;7.25;;;10.80;99.90;;;;;;5074694;28;20203;-74
2022/01/14 12:08:29;;;;;;;11.50;7.70;;;11.00;99.90;;;;;;5073751;28;20195;-74
2022/01/14 12:11:05;;;;;;;11.63;7.82;;;11.10;99.90;;;;;;5071508;28;20180;-75
2022/01/14 12:13:38;;;;;;;10.60;7.97;;;11.20;99.90;;;;;;5072586;28;20237;-73
2022/01/14 12:16:08;;;;;;;9.53;7.27;;;11.20;99.90;;;;;;5070071;28;20224;-72
2022/01/14 12:18:49;;;;;;;11.68;7.70;;;11.10;99.90;;;;;;5071388;28;20210;-72
2022/01/14 12:21:17;;;;;;;11.68;7.72;;;11.10;99.90;;;;;;5061551;28;20235;-74
2022/01/14 12:23:46;;;;;;;11.93;9.15;;;11.20;99.90;;;;;;5065552;28;20201;-74
2022/01/14 12:26:16;;;;;;;12.77;9.10;;;11.30;99.90;;;;;;5073054;28;20188;-74
2022/01/14 12:28:45;;;;;;;13.07;9.40;;;11.20;99.90;;;;;;5070397;28;20188;-74
2022/01/14 12:31:14;;;;;;;12.30;8.57;;;11.20;99.90;;;;;;5073486;28;20221;-73
2022/01/14 12:33:45;;;;;;;11.30;8.13;;;11.20;99.90;;;;;;5083737;28;20275;-73
2022/01/14 12:36:13;;;;;;;10.27;8.07;;;11.30;99.90;;;;;;5068489;28;20254;-73
2022/01/14 12:38:40;;;;;;;12.18;8.80;;;11.50;99.90;;;;;;5074713;28;20227;-74
2022/01/14 12:41:20;;;;;;;13.40;8.45;;;11.70;99.90;;;;;;5085907;28;20195;-74
2022/01/14 12:43:47;;;;;;;13.48;9.82;;;11.90;99.90;;;;;;5056554;28;20193;-73
2022/01/14 12:49:14;;;;;;;13.32;9.77;;;11.90;99.90;;;;;;5070538;28;20192;-73
2022/01/14 12:51:40;;;;;;;12.48;9.85;;;11.60;99.90;;;;;;5071748;28;20634;-70
2022/01/14 12:54:09;;;;;;;12.18;9.35;;;11.30;99.90;;;;;;5061249;28;20494;-72
2022/01/14 12:56:37;;;;;;;12.50;9.63;;;11.00;99.90;;;;;;5070744;28;20271;-73
2022/01/14 12:59:05;;;;;;;11.20;8.80;;;10.70;99.90;;;;;;5072776;28;20187;-64
2022/01/14 13:01:40;;;;;;;13.35;9.35;;;10.50;99.90;;;;;;5065335;28;20219;-72
2022/01/14 13:04:12;;;;;;;15.70;9.83;;;10.30;99.90;;;;;;5072339;28;20287;-70
2022/01/14 13:06:44;;;;;;;14.17;10.27;;;10.10;99.90;;;;;;5070632;28;20168;-71
2022/01/14 13:09:11;;;;;;;14.10;10.40;;;9.80;99.90;;;;;;5067174;28;20235;-71
2022/01/14 13:11:59;;;;;;;15.97;11.00;;;9.60;99.90;;;;;;5072881;28;20193;-71
2022/01/14 13:14:50;;;;;;;17.37;11.17;;;9.40;99.90;;;;;;5072196;28;20241;-71
2022/01/14 13:17:27;;;;;;;19.33;11.53;;;9.20;99.90;;;;;;5081558;28;20385;-73
2022/01/14 13:20:02;;;;;;;17.67;11.77;;;9.00;99.90;;;;;;5072659;28;20176;-72
2022/01/14 13:22:30;;;;;;;18.50;11.53;;;8.80;99.90;;;;;;5089897;28;20176;-71
2022/01/14 13:25:02;;;;;;;19.97;13.17;;;8.70;99.90;;;;;;5069470;28;20294;-74
2022/01/14 13:27:38;;;;;;;20.93;13.03;;;8.50;99.90;;;;;;5070776;28;20228;-71
2022/01/14 13:30:03;;;;;;;20.17;12.60;;;8.30;99.90;;;;;;5071116;28;20169;-74
2022/01/14 13:32:32;;;;;;;20.53;12.57;;;8.10;99.90;;;;;;5069264;28;20181;-73
2022/01/14 13:35:09;;;;;;;22.03;11.63;;;8.00;99.90;;;;;;5062160;28;20464;-72
2022/01/14 13:37:36;;;;;;;22.57;13.33;;;7.90;99.90;;;;;;5086267;28;20739;-73